Time;durP1;ratioP1;P1;durP2;ratioP2;P2;SDS_P1;SDS_P2;PMS_P1;PMS_P2;Temp;Humidity;BMP_temperature;BMP_pressure;BME280_temperature;BME280_humidity;BME280_pressure;Samples;Min_cycle;Max_cycle;Signal;HPM_P1;HPM_P2
2022/05/19 00:01:33;;;;;;;4.53;4.03;;;;;;;24.56;49.65;96572.44;5036113;28;20205;-87
2022/05/19 00:04:00;;;;;;;8.00;4.47;;;;;;;24.47;49.67;96557.75;5037652;28;20210;-87
2022/05/19 00:06:27;;;;;;;6.65;4.57;;;;;;;24.61;48.54;96571.47;5043943;28;20357;-87
2022/05/19 00:08:54;;;;;;;9.70;4.53;;;;;;;24.79;48.23;96564.94;5054735;28;20300;-86
2022/05/19 00:11:27;;;;;;;7.70;4.55;;;;;;;24.96;47.21;96558.72;5037548;28;20246;-88
2022/05/19 00:13:55;;;;;;;8.10;4.35;;;;;;;24.94;47.28;96569.25;5045784;28;20313;-87
2022/05/19 00:16:22;;;;;;;7.13;4.65;;;;;;;24.99;47.19;96558.09;5062529;28;20221;-87
2022/05/19 00:18:49;;;;;;;4.57;4.18;;;;;;;24.94;47.22;96560.97;5046153;28;20229;-87
2022/05/19 00:21:17;;;;;;;4.82;4.32;;;;;;;24.89;47.57;96562.72;5038299;28;20202;-87
2022/05/19 00:23:44;;;;;;;7.47;4.38;;;;;;;24.83;47.45;96564.00;5054965;28;20287;-87
2022/05/19 00:26:11;;;;;;;6.75;4.88;;;;;;;24.95;47.30;96573.66;5038925;28;20205;-87
2022/05/19 00:28:38;;;;;;;6.03;4.68;;;;;;;25.00;46.49;96554.19;5036133;28;20194;-87
2022/05/19 00:31:07;;;;;;;7.18;4.55;;;;;;;24.97;46.83;96568.63;5046875;28;20277;-86
2022/05/19 00:33:34;;;;;;;6.07;4.65;;;;;;;24.88;47.29;96574.91;5046492;28;20236;-87
2022/05/19 00:36:07;;;;;;;6.43;4.60;;;;;;;24.95;47.01;96571.72;5043133;28;20215;-86
2022/05/19 00:38:34;;;;;;;5.18;4.30;;;;;;;24.95;46.82;96563.44;5044906;28;20267;-88
2022/05/19 00:41:02;;;;;;;5.38;4.32;;;;;;;24.93;46.57;96564.88;5041528;28;20304;-87
2022/05/19 00:43:31;;;;;;;4.63;4.18;;;;;;;25.06;46.42;96572.25;5041471;28;20213;-87
2022/05/19 00:46:05;;;;;;;6.30;5.13;;;;;;;25.15;46.04;96554.59;5033687;28;20218;-87
2022/05/19 00:48:43;;;;;;;5.03;4.22;;;;;;;25.02;47.02;96557.44;5039131;28;20202;-86
2022/05/19 00:51:11;;;;;;;7.28;4.60;;;;;;;24.96;46.75;96580.81;5037459;28;20300;-85
2022/05/19 00:53:43;;;;;;;7.97;4.65;;;;;;;25.05;46.30;96559.56;5052519;28;20238;-85
2022/05/19 00:56:14;;;;;;;6.38;4.15;;;;;;;25.00;46.55;96577.13;5033408;28;20309;-86
2022/05/19 00:58:47;;;;;;;6.53;4.53;;;;;;;24.94;46.75;96574.78;5038069;28;20224;-85
2022/05/19 01:01:16;;;;;;;8.77;4.53;;;;;;;24.93;46.72;96562.91;5048146;28;20223;-86
2022/05/19 01:03:49;;;;;;;7.25;4.30;;;;;;;24.99;46.27;96572.72;5045295;28;20212;-84
2022/05/19 01:06:19;;;;;;;5.32;4.80;;;;;;;24.87;46.78;96570.50;5054484;28;20201;-85
2022/05/19 01:08:51;;;;;;;6.32;4.25;;;;;;;24.85;47.38;96583.00;5042964;28;20213;-85
2022/05/19 01:11:18;;;;;;;5.25;4.10;;;;;;;24.79;47.27;96587.84;5042309;28;20244;-85
2022/05/19 01:13:46;;;;;;;9.52;4.60;;;;;;;24.83;46.82;96586.09;5039493;28;20223;-84
2022/05/19 01:16:14;;;;;;;5.47;4.80;;;;;;;24.96;46.35;96580.81;5040707;28;20233;-84
2022/05/19 01:18:43;;;;;;;6.07;4.32;;;;;;;24.83;47.29;96588.03;5043985;28;20229;-86
2022/05/19 01:21:15;;;;;;;6.63;4.30;;;;;;;24.74;47.11;96582.47;5035839;28;20214;-85
2022/05/19 01:23:55;;;;;;;4.55;4.10;;;;;;;24.67;47.41;96573.00;5044061;28;20240;-85
2022/05/19 01:26:37;;;;;;;6.75;4.60;;;;;;;24.69;47.23;96577.06;5040171;28;20216;-84
2022/05/19 01:29:04;;;;;;;5.03;4.22;;;;;;;24.69;47.04;96585.34;5053875;28;20220;-84
2022/05/19 01:31:34;;;;;;;4.55;4.15;;;;;;;24.76;46.79;96585.69;5055612;28;20208;-86
2022/05/19 01:34:04;;;;;;;4.50;3.97;;;;;;;24.76;47.10;96605.03;5041538;28;20233;-86
2022/05/19 01:36:31;;;;;;;5.78;4.50;;;;;;;24.70;47.15;96578.69;5052341;28;20293;-84
2022/05/19 01:39:04;;;;;;;4.68;4.13;;;;;;;24.64;47.62;96585.47;5041379;28;20229;-85
2022/05/19 01:41:47;;;;;;;6.65;4.43;;;;;;;24.68;46.77;96574.59;5037187;28;20204;-86
2022/05/19 01:44:29;;;;;;;6.57;4.65;;;;;;;24.76;46.69;96599.50;5044343;28;20278;-85
2022/05/19 01:47:06;;;;;;;8.32;4.50;;;;;;;24.80;46.48;96594.19;5041543;28;20202;-87
2022/05/19 01:49:38;;;;;;;5.50;4.22;;;;;;;24.73;46.90;96586.34;5040630;28;20228;-85
2022/05/19 01:52:14;;;;;;;5.60;4.35;;;;;;;24.63;47.51;96603.16;5058547;28;20201;-85
2022/05/19 01:54:50;;;;;;;4.72;4.30;;;;;;;24.53;47.72;96589.59;5040761;28;20309;-85
2022/05/19 01:57:25;;;;;;;6.15;4.25;;;;;;;24.50;47.55;96595.75;5053309;28;20296;-86
2022/05/19 02:00:00;;;;;;;4.82;3.83;;;;;;;24.45;47.54;96595.88;5051809;28;20208;-86
2022/05/19 02:02:36;;;;;;;6.00;4.30;;;;;;;24.45;47.27;96588.41;5041438;28;20203;-85
2022/05/19 02:05:11;;;;;;;6.88;4.22;;;;;;;24.58;46.69;96586.75;5057197;28;20202;-85
2022/05/19 02:07:41;;;;;;;5.78;4.50;;;;;;;24.69;46.17;96588.09;5045754;28;20216;-85
2022/05/19 02:10:13;;;;;;;5.85;3.95;;;;;;;24.67;46.46;96584.81;5065012;28;20232;-86
2022/05/19 02:12:42;;;;;;;5.35;4.05;;;;;;;24.50;47.39;96596.56;5047852;28;20239;-85
2022/05/19 02:15:13;;;;;;;5.28;4.15;;;;;;;24.36;47.68;96592.22;5041635;28;20233;-86
2022/05/19 02:17:43;;;;;;;4.70;4.20;;;;;;;24.32;47.33;96591.25;5051384;28;20259;-86
2022/05/19 02:20:14;;;;;;;4.82;3.50;;;;;;;24.38;47.62;96598.25;5048469;28;20217;-84
2022/05/19 02:22:44;;;;;;;5.28;3.85;;;;;;;24.54;46.90;96596.75;5042287;28;20198;-84
2022/05/19 02:25:19;;;;;;;5.07;4.00;;;;;;;24.42;47.31;96589.03;5041946;28;20297;-85
2022/05/19 02:27:53;;;;;;;9.63;4.10;;;;;;;24.43;47.00;96589.84;5038057;28;20287;-85
2022/05/19 02:30:24;;;;;;;5.70;4.30;;;;;;;24.49;47.09;96599.66;5037806;28;20278;-85
2022/05/19 02:32:51;;;;;;;6.07;4.10;;;;;;;24.49;47.07;96594.97;5041233;28;20218;-86
2022/05/19 02:35:19;;;;;;;4.93;4.15;;;;;;;24.53;46.52;96600.66;5039897;28;20221;-85
2022/05/19 02:37:48;;;;;;;4.93;3.95;;;;;;;24.43;46.84;96596.19;5045748;28;20224;-85
2022/05/19 02:40:20;;;;;;;5.43;4.13;;;;;;;24.50;46.49;96598.50;5042165;28;20213;-86
2022/05/19 02:42:49;;;;;;;5.95;4.10;;;;;;;24.52;46.73;96605.34;5041806;28;20205;-86
2022/05/19 02:45:17;;;;;;;3.80;3.50;;;;;;;24.44;47.30;96602.53;5041878;28;20210;-84
2022/05/19 02:47:45;;;;;;;5.65;3.92;;;;;;;24.29;47.25;96597.38;5051316;28;20344;-85
2022/05/19 02:50:15;;;;;;;4.88;4.25;;;;;;;24.24;47.91;96614.06;5037250;28;20264;-86
2022/05/19 02:52:42;;;;;;;5.18;4.30;;;;;;;24.08;48.15;96600.56;5040646;28;20308;-86
2022/05/19 02:55:10;;;;;;;6.43;4.28;;;;;;;24.11;48.10;96610.97;5038370;28;20225;-86
2022/05/19 02:57:37;;;;;;;4.75;4.13;;;;;;;24.07;48.14;96612.72;5052974;28;20221;-85
2022/05/19 03:00:09;;;;;;;7.70;4.05;;;;;;;24.30;47.11;96601.78;5045894;28;20209;-85
2022/05/19 03:02:36;;;;;;;6.15;3.88;;;;;;;24.30;47.32;96608.09;5043209;28;20206;-86
2022/05/19 03:05:04;;;;;;;6.28;3.75;;;;;;;24.38;46.54;96614.81;5051318;28;20241;-85
2022/05/19 03:07:31;;;;;;;7.03;4.00;;;;;;;24.39;46.96;96613.69;5045994;28;20206;-86
2022/05/19 03:09:58;;;;;;;6.65;4.07;;;;;;;24.40;46.48;96607.06;5056117;28;20202;-86
2022/05/19 03:12:25;;;;;;;5.57;3.80;;;;;;;24.28;46.91;96598.50;5050701;28;20227;-84
2022/05/19 03:14:52;;;;;;;5.80;3.65;;;;;;;24.30;47.01;96604.53;5043103;28;20320;-87
2022/05/19 03:17:21;;;;;;;4.03;3.60;;;;;;;24.44;45.90;96594.25;5044223;28;20236;-84
2022/05/19 03:19:53;;;;;;;6.18;3.85;;;;;;;24.37;46.63;96613.19;5038564;28;20222;-86
2022/05/19 03:22:22;;;;;;;5.53;3.80;;;;;;;24.41;46.19;96606.72;5040295;28;20213;-85
2022/05/19 03:24:49;;;;;;;4.28;3.50;;;;;;;24.45;46.13;96621.53;5036155;28;20210;-85
2022/05/19 03:27:16;;;;;;;4.93;3.88;;;;;;;24.47;46.20;96612.94;5043130;28;20225;-85
2022/05/19 03:29:45;;;;;;;7.82;3.97;;;;;;;24.37;46.27;96618.72;5056877;28;20216;-85
2022/05/19 03:32:12;;;;;;;4.60;3.50;;;;;;;24.40;46.18;96612.56;5060774;28;20210;-86
2022/05/19 03:34:42;;;;;;;5.07;3.80;;;;;;;24.43;46.33;96622.97;5061494;28;20231;-86
2022/05/19 03:37:13;;;;;;;4.93;3.70;;;;;;;24.51;45.70;96623.03;5045569;28;20203;-85
2022/05/19 03:39:40;;;;;;;5.63;3.72;;;;;;;24.51;45.88;96613.94;5045041;28;20265;-85
2022/05/19 03:42:09;;;;;;;6.47;3.97;;;;;;;24.43;46.15;96621.03;5056362;28;20216;-86
2022/05/19 03:44:37;;;;;;;5.07;3.90;;;;;;;24.35;46.69;96635.56;5040401;28;20207;-87
2022/05/19 03:47:06;;;;;;;5.00;3.58;;;;;;;24.24;46.67;96625.09;5059449;28;20202;-86
2022/05/19 03:49:33;;;;;;;4.55;3.90;;;;;;;24.19;47.09;96642.53;5054046;28;20259;-85
2022/05/19 03:52:04;;;;;;;4.72;4.00;;;;;;;24.34;46.51;96608.28;5037614;28;20213;-85
2022/05/19 03:54:31;;;;;;;5.97;3.47;;;;;;;24.35;46.34;96626.47;5043482;28;20253;-86
2022/05/19 03:56:58;;;;;;;4.18;3.53;;;;;;;24.42;45.82;96630.44;5043352;28;20193;-85
2022/05/19 03:59:25;;;;;;;5.72;3.58;;;;;;;24.43;46.04;96634.00;5043821;28;20229;-85
2022/05/19 04:01:52;;;;;;;4.28;3.88;;;;;;;24.32;46.17;96632.63;5046359;28;20194;-85
2022/05/19 04:04:19;;;;;;;5.32;3.75;;;;;;;24.34;46.27;96649.69;5050469;28;20218;-86
2022/05/19 04:06:46;;;;;;;5.28;3.75;;;;;;;24.23;46.70;96653.81;5059956;28;20212;-85
2022/05/19 04:09:15;;;;;;;4.93;3.45;;;;;;;24.21;46.88;96636.75;5034075;28;20257;-85
2022/05/19 04:11:42;;;;;;;5.32;3.63;;;;;;;24.22;46.86;96643.91;5038077;28;20242;-85
2022/05/19 04:14:10;;;;;;;6.07;3.42;;;;;;;24.21;46.91;96667.09;5022460;28;20207;-86
2022/05/19 04:16:37;;;;;;;5.38;3.83;;;;;;;24.17;47.27;96658.59;5032789;28;20222;-86
2022/05/19 04:19:04;;;;;;;5.15;3.53;;;;;;;24.23;46.42;96653.81;5024267;28;20207;-86
2022/05/19 04:21:32;;;;;;;3.60;3.30;;;;;;;24.25;46.49;96660.63;5012162;28;20294;-86
2022/05/19 04:23:59;;;;;;;3.92;3.53;;;;;;;24.31;46.61;96664.94;5031519;28;20206;-85
2022/05/19 04:26:28;;;;;;;4.90;3.75;;;;;;;24.33;46.32;96672.91;5014847;28;20206;-86
2022/05/19 04:28:55;;;;;;;4.00;3.60;;;;;;;24.34;45.86;96675.34;5023008;28;20206;-87
2022/05/19 04:31:23;;;;;;;4.43;3.90;;;;;;;24.27;46.73;96672.19;5036963;28;20210;-88
2022/05/19 04:33:50;;;;;;;6.55;3.90;;;;;;;24.38;45.71;96670.84;5034625;28;20202;-85
2022/05/19 04:36:17;;;;;;;5.50;3.30;;;;;;;24.39;45.63;96683.53;5020401;28;20286;-85
2022/05/19 04:38:44;;;;;;;4.97;3.80;;;;;;;24.41;45.67;96685.97;5022106;28;20274;-85
2022/05/19 04:41:12;;;;;;;5.80;3.58;;;;;;;24.40;46.24;96690.69;5024975;28;20400;-85
2022/05/19 04:43:40;;;;;;;4.13;3.38;;;;;;;24.41;45.62;96681.25;5021595;28;20300;-86
2022/05/19 04:46:07;;;;;;;6.38;3.47;;;;;;;24.43;45.87;96675.41;5017816;28;20202;-85
2022/05/19 04:48:35;;;;;;;5.18;3.10;;;;;;;24.41;46.38;96697.00;5028415;28;20214;-87
2022/05/19 04:51:03;;;;;;;3.53;3.17;;;;;;;24.41;45.99;96692.28;5021597;28;20229;-85
2022/05/19 04:53:30;;;;;;;3.60;3.30;;;;;;;24.39;45.87;96685.47;5018673;28;20224;-85
2022/05/19 04:55:57;;;;;;;4.55;3.78;;;;;;;24.40;46.09;96695.38;5012889;28;20305;-86
2022/05/19 04:58:24;;;;;;;4.47;3.50;;;;;;;24.41;45.88;96705.28;5038371;28;20265;-86
2022/05/19 05:00:53;;;;;;;3.85;3.40;;;;;;;24.51;45.84;96710.56;5013945;28;20286;-86
2022/05/19 05:03:21;;;;;;;5.85;3.33;;;;;;;24.51;45.79;96716.09;5036045;28;20213;-87
2022/05/19 05:05:49;;;;;;;5.18;3.58;;;;;;;24.43;46.35;96717.63;5018120;28;20198;-86
2022/05/19 05:08:16;;;;;;;4.22;3.15;;;;;;;24.36;46.16;96720.00;5010496;28;20233;-86
2022/05/19 05:10:43;;;;;;;5.47;3.80;;;;;;;24.42;46.58;96720.69;5019777;28;20212;-86
2022/05/19 05:13:12;;;;;;;4.57;3.40;;;;;;;24.39;46.31;96721.34;5060319;28;20238;-86
2022/05/19 05:15:41;;;;;;;3.50;3.20;;;;;;;24.38;46.65;96725.22;5056030;28;20231;-86
2022/05/19 05:18:10;;;;;;;3.72;3.42;;;;;;;24.36;46.53;96719.19;5037510;28;20208;-85
2022/05/19 05:20:41;;;;;;;5.13;3.83;;;;;;;24.37;46.43;96721.66;5037200;28;20212;-87
2022/05/19 05:23:09;;;;;;;3.70;3.40;;;;;;;24.36;46.92;96728.28;5052571;28;20206;-85
2022/05/19 05:25:38;;;;;;;4.90;3.33;;;;;;;24.33;47.02;96736.38;5038332;28;20210;-86
2022/05/19 05:28:05;;;;;;;3.50;3.20;;;;;;;24.41;46.64;96732.91;5043557;28;20296;-85
2022/05/19 05:30:33;;;;;;;3.85;3.45;;;;;;;24.41;46.23;96741.19;5047218;28;20316;-87
2022/05/19 05:33:06;;;;;;;7.18;3.83;;;;;;;24.39;46.55;96749.75;5040565;28;20241;-86
2022/05/19 05:35:36;;;;;;;8.75;3.75;;;;;;;24.30;47.51;96739.75;5035519;28;20237;-87
2022/05/19 05:38:03;;;;;;;4.43;3.47;;;;;;;24.22;47.94;96726.69;5036841;28;20288;-86
2022/05/19 05:40:31;;;;;;;3.95;3.45;;;;;;;24.27;47.05;96745.88;5032282;28;20210;-86
2022/05/19 05:43:05;;;;;;;7.28;3.70;;;;;;;24.29;47.07;96743.63;5034353;28;20210;-86
2022/05/19 05:45:33;;;;;;;4.55;3.35;;;;;;;24.33;46.73;96752.94;5059316;28;20204;-85
2022/05/19 05:48:00;;;;;;;4.00;3.45;;;;;;;24.38;46.55;96747.31;5049425;28;20301;-86
2022/05/19 05:50:27;;;;;;;3.55;3.13;;;;;;;24.43;47.10;96760.97;5034999;28;20328;-85
2022/05/19 05:52:56;;;;;;;4.55;3.42;;;;;;;24.36;47.34;96755.88;5035870;28;20210;-86
2022/05/19 05:55:24;;;;;;;3.67;3.38;;;;;;;24.35;46.88;96753.44;5032302;28;20225;-84
2022/05/19 05:57:51;;;;;;;3.53;3.17;;;;;;;24.37;47.44;96762.22;5044675;28;20224;-86
2022/05/19 06:00:20;;;;;;;7.80;3.50;;;;;;;24.36;47.18;96763.34;5046391;28;20269;-84
2022/05/19 06:02:48;;;;;;;7.10;3.25;;;;;;;24.29;47.43;96771.22;5042337;28;20239;-86
2022/05/19 06:05:16;;;;;;;3.75;3.10;;;;;;;24.33;47.01;96772.28;5039473;28;20222;-85
2022/05/19 06:07:43;;;;;;;4.20;3.72;;;;;;;24.26;47.37;96772.66;5048468;28;20214;-85
2022/05/19 06:10:13;;;;;;;5.85;3.80;;;;;;;24.29;47.47;96771.22;5039691;28;20225;-86
2022/05/19 06:12:41;;;;;;;4.72;3.55;;;;;;;24.30;48.15;96783.91;5026786;28;20230;-84
2022/05/19 06:15:10;;;;;;;4.20;3.42;;;;;;;24.31;47.94;96780.03;5011970;28;20267;-85
2022/05/19 06:17:39;;;;;;;5.15;3.47;;;;;;;24.25;48.43;96775.72;5026145;28;20296;-85
2022/05/19 06:20:07;;;;;;;3.85;3.55;;;;;;;24.25;47.53;96772.97;5020826;28;20209;-88
2022/05/19 06:22:35;;;;;;;4.43;3.10;;;;;;;24.29;46.73;96790.56;5025069;28;20229;-86
2022/05/19 06:25:02;;;;;;;5.78;3.20;;;;;;;24.39;47.17;96776.53;5023708;28;20214;-87
2022/05/19 06:27:31;;;;;;;3.42;3.13;;;;;;;24.40;46.32;96775.44;5024793;28;20214;-85
2022/05/19 06:29:58;;;;;;;3.58;3.28;;;;;;;24.46;45.80;96775.00;5021655;28;20195;-85
2022/05/19 06:32:25;;;;;;;6.63;3.35;;;;;;;24.48;46.48;96781.03;5018856;28;20229;-86
2022/05/19 06:34:52;;;;;;;3.67;3.25;;;;;;;24.50;46.47;96789.81;5044757;28;20211;-88
2022/05/19 06:37:19;;;;;;;3.88;2.90;;;;;;;24.50;46.28;96784.28;5021819;28;20311;-87
2022/05/19 06:39:46;;;;;;;5.95;3.40;;;;;;;24.52;46.51;96786.75;5023193;28;20198;-85
2022/05/19 06:42:15;;;;;;;7.40;3.55;;;;;;;24.56;46.41;96792.47;5021840;28;20304;-86
2022/05/19 06:44:45;;;;;;;3.30;3.00;;;;;;;24.57;45.70;96794.94;5030041;28;20207;-86
2022/05/19 06:47:14;;;;;;;3.50;3.20;;;;;;;24.64;46.35;96795.31;5020313;28;20217;-86
2022/05/19 06:49:42;;;;;;;4.93;3.47;;;;;;;24.66;45.55;96789.50;5020508;28;20206;-86
2022/05/19 06:52:13;;;;;;;3.53;3.22;;;;;;;24.67;45.40;96788.38;5028537;28;20217;-83
2022/05/19 06:54:42;;;;;;;3.10;2.90;;;;;;;24.68;44.55;96790.81;5015402;28;20348;-86
2022/05/19 06:57:09;;;;;;;3.55;3.22;;;;;;;24.80;45.24;96784.75;5024549;28;20230;-85
2022/05/19 06:59:36;;;;;;;5.55;3.63;;;;;;;24.81;45.03;96789.16;5033594;28;20214;-85
2022/05/19 07:02:06;;;;;;;3.50;3.20;;;;;;;24.81;44.67;96781.69;5020095;28;20233;-84
2022/05/19 07:04:33;;;;;;;5.97;3.13;;;;;;;24.91;44.50;96793.63;5020581;28;20233;-85
2022/05/19 07:07:01;;;;;;;3.80;3.08;;;;;;;24.82;44.87;96774.22;5015612;28;20210;-86
2022/05/19 07:09:28;;;;;;;5.53;3.30;;;;;;;24.93;44.40;96791.38;5025575;28;20214;-85
2022/05/19 07:11:55;;;;;;;4.25;3.22;;;;;;;25.10;44.00;96788.78;5041777;28;20319;-86
2022/05/19 07:14:23;;;;;;;3.67;2.95;;;;;;;25.49;43.24;96783.38;5052923;28;20231;-85
2022/05/19 07:16:50;;;;;;;3.45;3.15;;;;;;;25.73;42.67;96787.78;5048175;28;20225;-85
2022/05/19 07:22:05;;;;;;;3.05;2.75;;;;;;;25.77;42.33;96795.16;5055243;28;20212;-85
2022/05/19 07:24:33;;;;;;;3.67;3.22;;;;;;;25.62;42.87;96785.28;5064086;28;20240;-86
2022/05/19 07:27:00;;;;;;;3.15;2.88;;;;;;;25.61;42.48;96778.13;5051553;28;20221;-87
2022/05/19 07:29:28;;;;;;;5.25;3.15;;;;;;;25.73;43.63;96793.31;5042693;28;20205;-86
2022/05/19 07:31:58;;;;;;;3.53;3.20;;;;;;;25.73;42.29;96787.78;5076842;28;20201;-85
2022/05/19 07:34:26;;;;;;;3.30;3.00;;;;;;;25.91;42.17;96790.34;5033967;28;20214;-85
2022/05/19 07:36:53;;;;;;;3.50;2.90;;;;;;;26.08;41.69;96786.84;5045490;28;20235;-85
2022/05/19 07:39:21;;;;;;;3.95;2.80;;;;;;;26.30;40.86;96781.25;5050813;28;20197;-86
2022/05/19 07:41:55;;;;;;;6.15;3.42;;;;;;;26.45;40.91;96784.72;5038772;28;20198;-86
2022/05/19 07:44:22;;;;;;;3.55;2.85;;;;;;;26.64;41.10;96793.53;5037067;28;20410;-87
2022/05/19 07:46:50;;;;;;;3.90;3.15;;;;;;;26.31;40.92;96777.34;5058847;28;20279;-85
2022/05/19 07:49:17;;;;;;;3.95;3.15;;;;;;;26.04;40.22;96788.59;5061537;28;20198;-86
2022/05/19 07:51:47;;;;;;;2.70;2.50;;;;;;;25.89;41.65;96791.78;5042945;28;20205;-86
2022/05/19 07:54:17;;;;;;;3.70;3.20;;;;;;;25.78;41.67;96790.41;5038847;28;20305;-86
2022/05/19 07:56:45;;;;;;;3.45;3.00;;;;;;;25.78;41.60;96787.63;5046932;28;20320;-86
2022/05/19 07:59:13;;;;;;;3.65;3.03;;;;;;;25.85;41.61;96790.78;5036693;28;20290;-87
2022/05/19 08:01:41;;;;;;;3.70;2.90;;;;;;;25.89;42.09;96783.47;5049676;28;20201;-86
2022/05/19 08:04:09;;;;;;;3.17;2.85;;;;;;;25.90;41.40;96772.09;5038745;28;20300;-85
2022/05/19 08:06:37;;;;;;;3.72;2.97;;;;;;;26.24;40.54;96776.97;5042741;28;20268;-86
2022/05/19 08:10:20;;;;;;;3.22;2.92;;;;;;;26.36;40.82;96787.47;5046781;28;20296;-86
2022/05/19 08:11:55;;;;;;;3.25;2.67;;;;;;;26.30;40.10;96774.88;5047235;28;20229;-85
2022/05/19 08:17:10;;;;;;;3.10;2.80;;;;;;;26.03;40.90;96775.88;5045546;28;20225;-88
2022/05/19 08:19:37;;;;;;;5.53;2.78;;;;;;;26.25;40.55;96773.06;5042072;28;20206;-84
2022/05/19 08:22:05;;;;;;;3.47;3.17;;;;;;;26.32;40.92;96776.19;5042977;28;20205;-85
2022/05/19 08:24:33;;;;;;;3.33;2.78;;;;;;;26.41;40.42;96775.41;5050024;28;20448;-85
2022/05/19 08:27:01;;;;;;;3.30;2.78;;;;;;;26.47;40.11;96774.94;5039126;28;20259;-85
2022/05/19 08:29:28;;;;;;;4.65;2.80;;;;;;;26.70;42.81;96784.78;5048244;28;20205;-85
2022/05/19 08:31:56;;;;;;;3.47;3.00;;;;;;;26.89;39.43;96775.31;5050088;28;20270;-86
2022/05/19 08:34:23;;;;;;;3.28;2.80;;;;;;;27.03;38.82;96767.72;5044867;28;20305;-85
2022/05/19 08:36:50;;;;;;;3.83;2.90;;;;;;;27.32;39.12;96769.81;5042565;28;20256;-86
2022/05/19 08:39:19;;;;;;;2.80;2.60;;;;;;;27.46;39.81;96751.06;5049364;28;20264;-85
2022/05/19 08:41:55;;;;;;;3.05;2.72;;;;;;;27.45;38.40;96753.00;5066867;28;20204;-85
2022/05/19 08:44:28;;;;;;;3.20;2.70;;;;;;;27.53;38.13;96745.81;5041016;28;20216;-86
2022/05/19 08:46:57;;;;;;;3.10;2.80;;;;;;;27.80;37.81;96739.91;5042343;28;20252;-87
2022/05/19 08:49:35;;;;;;;4.18;3.33;;;;;;;27.85;37.44;96748.03;5044090;28;20217;-86
2022/05/19 08:52:07;;;;;;;3.10;2.80;;;;;;;27.82;37.75;96734.81;5049297;28;20306;-85
2022/05/19 08:54:35;;;;;;;2.63;2.42;;;;;;;27.83;36.98;96728.13;5032853;28;20222;-87
2022/05/19 08:57:12;;;;;;;3.25;2.95;;;;;;;27.69;37.20;96730.31;5045876;28;20225;-85
2022/05/19 08:59:51;;;;;;;3.30;3.00;;;;;;;27.78;37.14;96720.00;5046594;28;20244;-86
2022/05/19 09:02:24;;;;;;;4.00;3.28;;;;;;;27.88;36.91;96718.81;5040577;28;20235;-85
2022/05/19 09:05:02;;;;;;;5.15;2.95;;;;;;;27.95;36.51;96715.53;5043864;28;20246;-86
2022/05/19 09:10:33;;;;;;;5.70;3.08;;;;;;;28.35;36.73;96718.78;5038369;28;20233;-85
2022/05/19 09:13:09;;;;;;;4.45;2.83;;;;;;;28.59;35.77;96710.59;5031654;28;20270;-86
2022/05/19 09:15:37;;;;;;;3.10;2.80;;;;;;;28.80;35.77;96710.66;5048895;28;20228;-86
2022/05/19 09:18:05;;;;;;;3.30;2.90;;;;;;;28.52;35.95;96702.81;5051986;28;20279;-84
2022/05/19 09:20:39;;;;;;;3.72;2.85;;;;;;;28.56;36.26;96692.66;5042222;28;20205;-86
2022/05/19 09:23:07;;;;;;;3.88;2.90;;;;;;;28.51;36.06;96698.41;5049198;28;20223;-85
2022/05/19 09:25:39;;;;;;;4.30;3.22;;;;;;;28.53;35.63;96690.56;5048445;28;20209;-86
2022/05/19 09:28:12;;;;;;;4.78;2.95;;;;;;;28.73;36.01;96691.72;5047314;28;20241;-86
2022/05/19 09:30:46;;;;;;;3.25;2.80;;;;;;;28.80;35.46;96699.53;5042112;28;20238;-86
2022/05/19 09:33:17;;;;;;;6.20;3.00;;;;;;;28.76;35.31;96690.22;5043660;28;20213;-85
2022/05/19 09:35:48;;;;;;;5.63;3.22;;;;;;;28.90;34.53;96688.03;5049287;28;20205;-87
2022/05/19 09:38:27;;;;;;;4.45;3.30;;;;;;;28.93;35.07;96682.56;5031649;28;20255;-85
2022/05/19 09:41:02;;;;;;;4.30;3.15;;;;;;;29.13;34.32;96672.59;5043143;28;20206;-86
2022/05/19 09:43:33;;;;;;;5.18;3.20;;;;;;;29.35;33.28;96672.22;5041169;28;20213;-86
2022/05/19 09:46:05;;;;;;;3.17;2.70;;;;;;;29.54;33.93;96680.03;5062982;28;20287;-85
2022/05/19 09:48:34;;;;;;;3.85;3.00;;;;;;;29.42;33.50;96676.44;5062998;28;20232;-86
2022/05/19 09:51:04;;;;;;;3.38;3.08;;;;;;;29.66;34.06;96670.91;5045730;28;20264;-85
2022/05/19 09:53:38;;;;;;;4.07;3.10;;;;;;;29.71;34.57;96667.88;5050292;28;20190;-85
2022/05/19 09:56:10;;;;;;;5.60;3.50;;;;;;;30.16;33.72;96662.25;5052937;28;20304;-86
2022/05/19 09:58:43;;;;;;;7.97;4.32;;;;;;;30.20;32.58;96659.59;5052651;28;20317;-85
2022/05/19 10:01:18;;;;;;;3.67;3.28;;;;;;;30.32;32.39;96663.19;5069060;28;20233;-85
2022/05/19 10:03:51;;;;;;;3.85;3.13;;;;;;;30.31;32.23;96660.72;5052684;28;20206;-85
2022/05/19 10:06:21;;;;;;;4.45;2.85;;;;;;;30.45;31.89;96658.41;5050954;28;20232;-87
2022/05/19 10:08:58;;;;;;;3.45;3.15;;;;;;;30.39;31.64;96654.22;5050535;28;20206;-84
2022/05/19 10:11:29;;;;;;;4.97;2.90;;;;;;;30.45;30.86;96647.28;5051704;28;20300;-87
2022/05/19 10:14:06;;;;;;;3.97;3.20;;;;;;;30.41;31.86;96649.13;5051309;28;20264;-85
2022/05/19 10:16:52;;;;;;;3.42;3.05;;;;;;;30.62;32.05;96640.63;5047586;28;20232;-86
2022/05/19 10:19:31;;;;;;;3.95;2.65;;;;;;;30.95;31.14;96637.63;5053182;28;20220;-86
2022/05/19 10:22:23;;;;;;;3.25;2.80;;;;;;;30.83;30.74;96636.50;5050146;28;20233;-87
2022/05/19 10:25:12;;;;;;;4.30;3.08;;;;;;;30.95;30.97;96637.63;5052285;28;20271;-85
2022/05/19 10:33:35;;;;;;;3.67;2.97;;;;;;;31.46;29.43;96619.94;5042271;28;20237;-87
2022/05/19 10:36:16;;;;;;;6.88;3.50;;;;;;;31.65;29.52;96605.28;5044048;28;20213;-86
2022/05/19 10:39:00;;;;;;;5.93;3.30;;;;;;;31.58;28.88;96613.44;5052645;28;20207;-85
2022/05/19 10:41:39;;;;;;;2.90;2.60;;;;;;;31.42;29.59;96607.88;5051305;28;20208;-86
2022/05/19 10:44:25;;;;;;;4.40;2.80;;;;;;;31.45;28.16;96604.38;5056873;28;20213;-85
2022/05/19 10:47:01;;;;;;;4.80;3.38;;;;;;;31.63;28.69;96590.91;5056663;28;20324;-87
2022/05/19 10:49:49;;;;;;;4.15;2.90;;;;;;;31.91;29.08;96604.72;5048587;28;20263;-82
2022/05/19 10:52:30;;;;;;;5.80;3.10;;;;;;;32.13;28.26;96601.28;5035966;28;20217;-84
2022/05/19 10:55:09;;;;;;;3.80;2.92;;;;;;;32.38;28.50;96596.28;5044455;28;20220;-83
2022/05/19 10:57:59;;;;;;;4.78;3.10;;;;;;;32.44;31.69;96594.00;5051494;28;20209;-83
2022/05/19 11:00:36;;;;;;;4.53;3.30;;;;;;;32.25;34.39;96594.78;5046933;28;20213;-84
2022/05/19 11:03:48;;;;;;;3.80;3.33;;;;;;;32.17;32.60;96591.03;5070298;28;20244;-83
2022/05/19 11:06:34;;;;;;;5.70;3.85;;;;;;;32.08;31.36;96584.78;5058972;28;20216;-84
2022/05/19 11:09:07;;;;;;;4.15;3.75;;;;;;;31.94;34.39;96578.88;5065079;28;20206;-84
2022/05/19 11:11:54;;;;;;;5.47;4.20;;;;;;;31.63;35.60;96582.53;5036434;28;20249;-84
2022/05/19 11:14:47;;;;;;;5.15;3.40;;;;;;;31.61;37.39;96570.06;5050858;28;20217;-83
2022/05/19 11:17:23;;;;;;;5.13;3.78;;;;;;;31.73;37.18;96576.38;5048961;28;20321;-84
2022/05/19 11:19:56;;;;;;;6.82;3.53;;;;;;;31.58;36.76;96583.56;5058647;28;20201;-84
2022/05/19 11:22:30;;;;;;;5.38;3.33;;;;;;;31.51;36.12;96577.00;5039096;28;20225;-83
2022/05/19 11:27:50;;;;;;;4.78;3.45;;;;;;;31.37;36.81;96593.38;5040002;28;20251;-85
2022/05/19 11:30:21;;;;;;;5.43;3.60;;;;;;;31.11;35.30;96582.72;5050669;28;20236;-84
2022/05/19 11:32:53;;;;;;;7.00;3.30;;;;;;;30.81;36.66;96587.81;5050516;28;20205;-83
2022/05/19 11:35:25;;;;;;;6.63;3.80;;;;;;;30.52;35.59;96593.75;5048628;28;20241;-84
2022/05/19 11:37:58;;;;;;;9.15;4.35;;;;;;;30.44;36.26;96581.56;5048961;28;20275;-86
2022/05/19 11:40:34;;;;;;;4.75;3.72;;;;;;;30.41;36.63;96580.28;5036891;28;20206;-87
2022/05/19 11:43:07;;;;;;;5.32;3.85;;;;;;;30.58;36.67;96587.56;5050588;28;20209;-87
2022/05/19 11:45:39;;;;;;;4.80;3.92;;;;;;;30.60;36.64;96581.66;5046421;28;20212;-86
2022/05/19 11:56:51;;;;;;;6.45;3.97;;;;;;;29.99;37.60;96578.97;5050788;28;20332;-86
2022/05/19 11:59:18;;;;;;;4.90;3.97;;;;;;;29.91;38.52;96577.09;5050484;28;20206;-86
2022/05/19 12:01:50;;;;;;;6.43;4.32;;;;;;;29.85;39.12;96576.53;5039510;28;20205;-86
2022/05/19 12:04:24;;;;;;;5.75;4.43;;;;;;;29.80;38.86;96593.44;5041175;28;20324;-85
2022/05/19 12:07:01;;;;;;;4.40;3.83;;;;;;;29.64;39.32;96582.19;5052785;28;20206;-86
2022/05/19 12:09:34;;;;;;;4.10;3.70;;;;;;;29.73;39.48;96594.03;5053714;28;20267;-87
2022/05/19 12:12:06;;;;;;;6.63;3.97;;;;;;;29.76;39.33;96586.97;5039169;28;20238;-85
2022/05/19 12:14:42;;;;;;;5.20;3.97;;;;;;;29.90;39.46;96604.13;5041819;28;20252;-86
2022/05/19 12:17:16;;;;;;;4.43;3.72;;;;;;;29.95;38.84;96612.25;5058214;28;20225;-85